sensor_id;sensor_type;location;lat;lon;timestamp;P1;durP1;ratioP1;P2;durP2;ratioP2
68315;SDS011;55508;54.368;18.406;2022-09-30T00:01:21;39.00;;;22.00;;
68315;SDS011;55508;54.368;18.406;2022-09-30T00:03:50;35.85;;;22.58;;
68315;SDS011;55508;54.368;18.406;2022-09-30T00:06:18;45.05;;;24.23;;
68315;SDS011;55508;54.368;18.406;2022-09-30T00:08:46;35.35;;;21.75;;
68315;SDS011;55508;54.368;18.406;2022-09-30T00:11:14;39.60;;;22.23;;
68315;SDS011;55508;54.368;18.406;2022-09-30T00:13:43;39.15;;;21.67;;
68315;SDS011;55508;54.368;18.406;2022-09-30T00:16:12;37.78;;;21.92;;
68315;SDS011;55508;54.368;18.406;2022-09-30T00:18:41;37.47;;;21.88;;
68315;SDS011;55508;54.368;18.406;2022-09-30T00:21:09;36.75;;;22.50;;
68315;SDS011;55508;54.368;18.406;2022-09-30T00:23:37;41.05;;;22.80;;
68315;SDS011;55508;54.368;18.406;2022-09-30T00:26:05;43.20;;;24.33;;
68315;SDS011;55508;54.368;18.406;2022-09-30T00:28:35;40.25;;;23.73;;
68315;SDS011;55508;54.368;18.406;2022-09-30T00:31:04;42.65;;;23.85;;
68315;SDS011;55508;54.368;18.406;2022-09-30T00:33:33;41.65;;;22.85;;
68315;SDS011;55508;54.368;18.406;2022-09-30T00:36:00;39.22;;;23.27;;
68315;SDS011;55508;54.368;18.406;2022-09-30T00:38:28;48.58;;;25.25;;
68315;SDS011;55508;54.368;18.406;2022-09-30T00:40:55;44.92;;;24.17;;
68315;SDS011;55508;54.368;18.406;2022-09-30T00:46:30;42.50;;;24.40;;
68315;SDS011;55508;54.368;18.406;2022-09-30T00:49:11;45.33;;;24.92;;
68315;SDS011;55508;54.368;18.406;2022-09-30T00:51:44;40.25;;;24.88;;
68315;SDS011;55508;54.368;18.406;2022-09-30T00:54:16;42.92;;;24.17;;
68315;SDS011;55508;54.368;18.406;2022-09-30T00:56:51;45.67;;;25.38;;
68315;SDS011;55508;54.368;18.406;2022-09-30T00:59:22;41.50;;;25.30;;
68315;SDS011;55508;54.368;18.406;2022-09-30T01:01:55;43.50;;;25.33;;
68315;SDS011;55508;54.368;18.406;2022-09-30T01:04:23;45.63;;;26.38;;
68315;SDS011;55508;54.368;18.406;2022-09-30T01:06:51;43.17;;;25.08;;
68315;SDS011;55508;54.368;18.406;2022-09-30T01:09:18;42.63;;;24.77;;
68315;SDS011;55508;54.368;18.406;2022-09-30T01:11:46;37.33;;;24.65;;
68315;SDS011;55508;54.368;18.406;2022-09-30T01:14:15;41.00;;;24.27;;
68315;SDS011;55508;54.368;18.406;2022-09-30T01:37:58;39.95;;;23.88;;
68315;SDS011;55508;54.368;18.406;2022-09-30T01:40:53;39.72;;;24.63;;
68315;SDS011;55508;54.368;18.406;2022-09-30T01:43:34;39.47;;;24.73;;
68315;SDS011;55508;54.368;18.406;2022-09-30T01:49:07;37.58;;;23.15;;
68315;SDS011;55508;54.368;18.406;2022-09-30T01:52:03;37.00;;;23.00;;
68315;SDS011;55508;54.368;18.406;2022-09-30T01:57:27;33.83;;;21.70;;
68315;SDS011;55508;54.368;18.406;2022-09-30T02:00:05;38.28;;;22.50;;
68315;SDS011;55508;54.368;18.406;2022-09-30T02:03:20;33.33;;;21.23;;
68315;SDS011;55508;54.368;18.406;2022-09-30T02:11:14;36.30;;;22.08;;
68315;SDS011;55508;54.368;18.406;2022-09-30T02:13:54;32.90;;;22.52;;
68315;SDS011;55508;54.368;18.406;2022-09-30T02:16:27;33.83;;;21.58;;
68315;SDS011;55508;54.368;18.406;2022-09-30T02:19:13;35.80;;;21.98;;
68315;SDS011;55508;54.368;18.406;2022-09-30T02:21:44;32.33;;;21.67;;
68315;SDS011;55508;54.368;18.406;2022-09-30T02:24:15;32.88;;;21.65;;
68315;SDS011;55508;54.368;18.406;2022-09-30T02:26:43;30.52;;;21.10;;
68315;SDS011;55508;54.368;18.406;2022-09-30T02:29:13;33.60;;;21.80;;
68315;SDS011;55508;54.368;18.406;2022-09-30T02:31:47;27.98;;;20.17;;
68315;SDS011;55508;54.368;18.406;2022-09-30T02:34:37;33.22;;;20.52;;
68315;SDS011;55508;54.368;18.406;2022-09-30T02:37:14;32.40;;;20.23;;
68315;SDS011;55508;54.368;18.406;2022-09-30T02:39:49;31.13;;;20.48;;
68315;SDS011;55508;54.368;18.406;2022-09-30T02:42:19;29.00;;;20.08;;
68315;SDS011;55508;54.368;18.406;2022-09-30T02:44:49;28.63;;;20.38;;
68315;SDS011;55508;54.368;18.406;2022-09-30T02:49:59;28.02;;;18.98;;
68315;SDS011;55508;54.368;18.406;2022-09-30T02:58:18;26.38;;;18.52;;
68315;SDS011;55508;54.368;18.406;2022-09-30T03:00:47;30.25;;;20.00;;
68315;SDS011;55508;54.368;18.406;2022-09-30T03:03:16;29.38;;;19.73;;
68315;SDS011;55508;54.368;18.406;2022-09-30T03:05:45;32.77;;;21.47;;
68315;SDS011;55508;54.368;18.406;2022-09-30T03:08:14;31.73;;;21.05;;
68315;SDS011;55508;54.368;18.406;2022-09-30T03:10:42;36.05;;;21.27;;
68315;SDS011;55508;54.368;18.406;2022-09-30T03:13:16;36.45;;;21.70;;
68315;SDS011;55508;54.368;18.406;2022-09-30T03:24:35;32.72;;;20.80;;
68315;SDS011;55508;54.368;18.406;2022-09-30T03:30:04;32.20;;;21.50;;
68315;SDS011;55508;54.368;18.406;2022-09-30T03:38:33;37.22;;;22.20;;
68315;SDS011;55508;54.368;18.406;2022-09-30T03:44:20;37.05;;;21.92;;
68315;SDS011;55508;54.368;18.406;2022-09-30T03:46:48;35.00;;;21.58;;
68315;SDS011;55508;54.368;18.406;2022-09-30T03:49:20;37.45;;;22.33;;
68315;SDS011;55508;54.368;18.406;2022-09-30T03:51:49;37.38;;;22.77;;
68315;SDS011;55508;54.368;18.406;2022-09-30T03:54:17;42.92;;;23.25;;
68315;SDS011;55508;54.368;18.406;2022-09-30T03:56:44;36.53;;;22.95;;
68315;SDS011;55508;54.368;18.406;2022-09-30T03:59:21;40.63;;;23.88;;
68315;SDS011;55508;54.368;18.406;2022-09-30T04:01:50;39.05;;;21.08;;
68315;SDS011;55508;54.368;18.406;2022-09-30T04:04:17;36.13;;;21.60;;
68315;SDS011;55508;54.368;18.406;2022-09-30T04:06:44;38.80;;;22.17;;
68315;SDS011;55508;54.368;18.406;2022-09-30T04:09:12;36.08;;;21.85;;
68315;SDS011;55508;54.368;18.406;2022-09-30T04:11:40;46.10;;;24.08;;
68315;SDS011;55508;54.368;18.406;2022-09-30T04:14:07;41.28;;;21.35;;
68315;SDS011;55508;54.368;18.406;2022-09-30T04:16:34;43.53;;;22.42;;
68315;SDS011;55508;54.368;18.406;2022-09-30T04:19:01;37.67;;;21.70;;
68315;SDS011;55508;54.368;18.406;2022-09-30T04:21:28;46.22;;;23.02;;
68315;SDS011;55508;54.368;18.406;2022-09-30T04:23:56;37.00;;;23.05;;
68315;SDS011;55508;54.368;18.406;2022-09-30T04:26:23;36.60;;;22.95;;
68315;SDS011;55508;54.368;18.406;2022-09-30T04:28:50;49.20;;;23.58;;
68315;SDS011;55508;54.368;18.406;2022-09-30T04:31:18;48.75;;;23.92;;
68315;SDS011;55508;54.368;18.406;2022-09-30T04:33:46;39.70;;;21.30;;
68315;SDS011;55508;54.368;18.406;2022-09-30T04:36:13;44.88;;;22.15;;
68315;SDS011;55508;54.368;18.406;2022-09-30T04:38:41;41.30;;;21.70;;
68315;SDS011;55508;54.368;18.406;2022-09-30T04:41:10;34.90;;;19.65;;
68315;SDS011;55508;54.368;18.406;2022-09-30T04:43:42;43.03;;;22.27;;
68315;SDS011;55508;54.368;18.406;2022-09-30T04:46:16;49.05;;;24.13;;
68315;SDS011;55508;54.368;18.406;2022-09-30T04:48:45;50.13;;;23.85;;
68315;SDS011;55508;54.368;18.406;2022-09-30T04:51:15;48.15;;;25.45;;
68315;SDS011;55508;54.368;18.406;2022-09-30T04:53:44;56.78;;;26.95;;
68315;SDS011;55508;54.368;18.406;2022-09-30T04:56:12;56.88;;;26.88;;
68315;SDS011;55508;54.368;18.406;2022-09-30T04:58:40;68.72;;;29.17;;
68315;SDS011;55508;54.368;18.406;2022-09-30T05:01:08;59.10;;;28.60;;
68315;SDS011;55508;54.368;18.406;2022-09-30T05:03:36;56.15;;;28.00;;
68315;SDS011;55508;54.368;18.406;2022-09-30T05:06:04;62.08;;;28.58;;
68315;SDS011;55508;54.368;18.406;2022-09-30T05:08:32;59.78;;;29.92;;
68315;SDS011;55508;54.368;18.406;2022-09-30T05:11:00;60.33;;;29.15;;
68315;SDS011;55508;54.368;18.406;2022-09-30T05:13:30;63.53;;;29.10;;
68315;SDS011;55508;54.368;18.406;2022-09-30T05:15:59;65.18;;;30.63;;
68315;SDS011;55508;54.368;18.406;2022-09-30T05:18:27;65.80;;;30.40;;
68315;SDS011;55508;54.368;18.406;2022-09-30T05:20:55;61.70;;;31.95;;
68315;SDS011;55508;54.368;18.406;2022-09-30T05:23:23;70.65;;;36.53;;
68315;SDS011;55508;54.368;18.406;2022-09-30T05:25:52;69.00;;;36.95;;
68315;SDS011;55508;54.368;18.406;2022-09-30T05:28:19;62.03;;;34.97;;
68315;SDS011;55508;54.368;18.406;2022-09-30T05:30:46;60.53;;;35.80;;
68315;SDS011;55508;54.368;18.406;2022-09-30T05:33:13;58.38;;;32.45;;
68315;SDS011;55508;54.368;18.406;2022-09-30T05:35:40;54.03;;;30.27;;
68315;SDS011;55508;54.368;18.406;2022-09-30T05:38:08;57.55;;;31.05;;
68315;SDS011;55508;54.368;18.406;2022-09-30T05:40:36;55.97;;;29.90;;
68315;SDS011;55508;54.368;18.406;2022-09-30T05:43:05;57.65;;;30.08;;
68315;SDS011;55508;54.368;18.406;2022-09-30T05:45:32;46.22;;;25.25;;
68315;SDS011;55508;54.368;18.406;2022-09-30T05:48:00;37.88;;;24.00;;
68315;SDS011;55508;54.368;18.406;2022-09-30T05:50:27;37.50;;;23.50;;
68315;SDS011;55508;54.368;18.406;2022-09-30T05:52:54;38.47;;;23.65;;
68315;SDS011;55508;54.368;18.406;2022-09-30T05:55:23;47.80;;;27.10;;
68315;SDS011;55508;54.368;18.406;2022-09-30T05:57:50;43.20;;;25.33;;
68315;SDS011;55508;54.368;18.406;2022-09-30T06:00:18;43.45;;;24.65;;
68315;SDS011;55508;54.368;18.406;2022-09-30T06:02:49;45.42;;;24.55;;
68315;SDS011;55508;54.368;18.406;2022-09-30T06:05:17;42.97;;;23.83;;
68315;SDS011;55508;54.368;18.406;2022-09-30T06:07:44;41.55;;;24.67;;
68315;SDS011;55508;54.368;18.406;2022-09-30T06:10:11;46.08;;;25.88;;
68315;SDS011;55508;54.368;18.406;2022-09-30T06:12:38;44.53;;;25.73;;
68315;SDS011;55508;54.368;18.406;2022-09-30T06:15:05;49.58;;;27.67;;
68315;SDS011;55508;54.368;18.406;2022-09-30T06:17:33;47.42;;;29.60;;
68315;SDS011;55508;54.368;18.406;2022-09-30T06:20:00;44.95;;;28.77;;
68315;SDS011;55508;54.368;18.406;2022-09-30T06:22:31;50.03;;;29.65;;
68315;SDS011;55508;54.368;18.406;2022-09-30T06:25:04;39.65;;;26.73;;
68315;SDS011;55508;54.368;18.406;2022-09-30T06:27:32;49.97;;;28.08;;
68315;SDS011;55508;54.368;18.406;2022-09-30T06:29:59;49.00;;;28.08;;
68315;SDS011;55508;54.368;18.406;2022-09-30T06:32:27;58.17;;;32.90;;
68315;SDS011;55508;54.368;18.406;2022-09-30T06:34:54;61.90;;;34.47;;
68315;SDS011;55508;54.368;18.406;2022-09-30T06:37:22;53.92;;;30.77;;
68315;SDS011;55508;54.368;18.406;2022-09-30T06:39:49;48.30;;;27.40;;
68315;SDS011;55508;54.368;18.406;2022-09-30T06:42:16;44.63;;;27.40;;
68315;SDS011;55508;54.368;18.406;2022-09-30T06:44:44;43.08;;;27.60;;
68315;SDS011;55508;54.368;18.406;2022-09-30T06:47:18;51.75;;;27.77;;
68315;SDS011;55508;54.368;18.406;2022-09-30T06:49:51;44.28;;;26.85;;
68315;SDS011;55508;54.368;18.406;2022-09-30T06:52:18;46.45;;;28.90;;
68315;SDS011;55508;54.368;18.406;2022-09-30T06:54:46;38.03;;;26.20;;
68315;SDS011;55508;54.368;18.406;2022-09-30T06:57:14;41.10;;;28.08;;
68315;SDS011;55508;54.368;18.406;2022-09-30T06:59:43;36.40;;;25.77;;
68315;SDS011;55508;54.368;18.406;2022-09-30T07:02:11;33.00;;;24.88;;
68315;SDS011;55508;54.368;18.406;2022-09-30T07:04:39;31.77;;;24.33;;
68315;SDS011;55508;54.368;18.406;2022-09-30T07:07:05;27.85;;;22.73;;
68315;SDS011;55508;54.368;18.406;2022-09-30T07:09:32;32.03;;;22.38;;
68315;SDS011;55508;54.368;18.406;2022-09-30T07:12:00;26.23;;;20.70;;
68315;SDS011;55508;54.368;18.406;2022-09-30T07:14:27;24.90;;;20.40;;
68315;SDS011;55508;54.368;18.406;2022-09-30T07:16:54;27.90;;;20.23;;
68315;SDS011;55508;54.368;18.406;2022-09-30T07:19:21;25.85;;;19.27;;
68315;SDS011;55508;54.368;18.406;2022-09-30T07:21:48;24.38;;;19.00;;
68315;SDS011;55508;54.368;18.406;2022-09-30T07:24:16;21.83;;;19.08;;
68315;SDS011;55508;54.368;18.406;2022-09-30T07:26:43;22.90;;;19.17;;
68315;SDS011;55508;54.368;18.406;2022-09-30T07:29:11;21.75;;;18.73;;
68315;SDS011;55508;54.368;18.406;2022-09-30T07:31:39;23.10;;;18.77;;
68315;SDS011;55508;54.368;18.406;2022-09-30T07:34:07;24.02;;;20.10;;
68315;SDS011;55508;54.368;18.406;2022-09-30T07:36:37;19.83;;;17.85;;
68315;SDS011;55508;54.368;18.406;2022-09-30T07:39:07;23.08;;;19.30;;
68315;SDS011;55508;54.368;18.406;2022-09-30T07:41:36;27.83;;;20.17;;
68315;SDS011;55508;54.368;18.406;2022-09-30T07:44:06;21.95;;;19.02;;
68315;SDS011;55508;54.368;18.406;2022-09-30T07:46:34;23.58;;;18.83;;
68315;SDS011;55508;54.368;18.406;2022-09-30T07:49:05;19.85;;;17.63;;
68315;SDS011;55508;54.368;18.406;2022-09-30T07:51:36;20.92;;;18.40;;
68315;SDS011;55508;54.368;18.406;2022-09-30T07:54:05;19.50;;;17.33;;
68315;SDS011;55508;54.368;18.406;2022-09-30T07:56:34;16.85;;;15.18;;
68315;SDS011;55508;54.368;18.406;2022-09-30T07:59:24;21.80;;;16.15;;
68315;SDS011;55508;54.368;18.406;2022-09-30T08:01:52;18.90;;;16.60;;
68315;SDS011;55508;54.368;18.406;2022-09-30T08:04:20;18.48;;;15.75;;
68315;SDS011;55508;54.368;18.406;2022-09-30T08:06:53;19.35;;;15.20;;
68315;SDS011;55508;54.368;18.406;2022-09-30T08:09:22;16.38;;;14.02;;
68315;SDS011;55508;54.368;18.406;2022-09-30T08:11:51;17.92;;;14.35;;
68315;SDS011;55508;54.368;18.406;2022-09-30T08:14:20;15.68;;;13.88;;
68315;SDS011;55508;54.368;18.406;2022-09-30T08:16:49;17.50;;;13.40;;
68315;SDS011;55508;54.368;18.406;2022-09-30T08:19:20;17.67;;;14.43;;
68315;SDS011;55508;54.368;18.406;2022-09-30T08:21:49;14.75;;;12.38;;
68315;SDS011;55508;54.368;18.406;2022-09-30T08:24:16;13.45;;;11.95;;
68315;SDS011;55508;54.368;18.406;2022-09-30T08:26:44;19.10;;;15.23;;
68315;SDS011;55508;54.368;18.406;2022-09-30T08:29:11;11.60;;;10.50;;
68315;SDS011;55508;54.368;18.406;2022-09-30T08:31:50;12.57;;;10.48;;
68315;SDS011;55508;54.368;18.406;2022-09-30T08:34:18;11.60;;;9.85;;
68315;SDS011;55508;54.368;18.406;2022-09-30T08:36:45;9.80;;;9.07;;
68315;SDS011;55508;54.368;18.406;2022-09-30T08:39:12;10.13;;;9.32;;
68315;SDS011;55508;54.368;18.406;2022-09-30T08:53:06;8.27;;;7.68;;
68315;SDS011;55508;54.368;18.406;2022-09-30T08:55:39;6.93;;;6.32;;
68315;SDS011;55508;54.368;18.406;2022-09-30T08:58:23;6.82;;;6.32;;
68315;SDS011;55508;54.368;18.406;2022-09-30T09:00:54;6.55;;;6.05;;
68315;SDS011;55508;54.368;18.406;2022-09-30T09:03:42;7.30;;;6.70;;
68315;SDS011;55508;54.368;18.406;2022-09-30T09:09:04;7.25;;;6.25;;
68315;SDS011;55508;54.368;18.406;2022-09-30T09:12:06;6.68;;;6.18;;
68315;SDS011;55508;54.368;18.406;2022-09-30T09:20:35;5.25;;;4.95;;
68315;SDS011;55508;54.368;18.406;2022-09-30T09:23:08;3.60;;;3.40;;
68315;SDS011;55508;54.368;18.406;2022-09-30T09:25:37;4.50;;;4.10;;
68315;SDS011;55508;54.368;18.406;2022-09-30T09:28:05;5.25;;;4.75;;
68315;SDS011;55508;54.368;18.406;2022-09-30T09:30:44;4.63;;;4.32;;
68315;SDS011;55508;54.368;18.406;2022-09-30T09:33:17;6.22;;;4.80;;
68315;SDS011;55508;54.368;18.406;2022-09-30T09:43:56;4.70;;;4.32;;
68315;SDS011;55508;54.368;18.406;2022-09-30T09:46:32;4.50;;;4.20;;
68315;SDS011;55508;54.368;18.406;2022-09-30T09:49:25;3.75;;;3.30;;
68315;SDS011;55508;54.368;18.406;2022-09-30T09:54:41;4.18;;;3.88;;
68315;SDS011;55508;54.368;18.406;2022-09-30T09:57:10;3.78;;;3.47;;
68315;SDS011;55508;54.368;18.406;2022-09-30T09:59:52;4.93;;;4.45;;
68315;SDS011;55508;54.368;18.406;2022-09-30T10:02:22;3.90;;;3.60;;
68315;SDS011;55508;54.368;18.406;2022-09-30T10:04:51;5.18;;;3.28;;
68315;SDS011;55508;54.368;18.406;2022-09-30T10:07:30;3.00;;;2.80;;
68315;SDS011;55508;54.368;18.406;2022-09-30T10:12:49;2.92;;;2.70;;
68315;SDS011;55508;54.368;18.406;2022-09-30T10:17:51;3.30;;;2.75;;
68315;SDS011;55508;54.368;18.406;2022-09-30T10:20:33;3.15;;;2.85;;
68315;SDS011;55508;54.368;18.406;2022-09-30T10:25:58;3.20;;;3.00;;
68315;SDS011;55508;54.368;18.406;2022-09-30T10:28:30;3.10;;;2.90;;
68315;SDS011;55508;54.368;18.406;2022-09-30T10:31:05;3.10;;;2.90;;
68315;SDS011;55508;54.368;18.406;2022-09-30T10:33:35;3.30;;;3.10;;
68315;SDS011;55508;54.368;18.406;2022-09-30T10:36:08;3.20;;;2.83;;
68315;SDS011;55508;54.368;18.406;2022-09-30T10:38:43;2.17;;;2.08;;
68315;SDS011;55508;54.368;18.406;2022-09-30T10:41:32;2.88;;;2.08;;
68315;SDS011;55508;54.368;18.406;2022-09-30T10:44:05;2.40;;;2.20;;
68315;SDS011;55508;54.368;18.406;2022-09-30T10:46:43;2.40;;;2.20;;
68315;SDS011;55508;54.368;18.406;2022-09-30T10:49:24;2.00;;;1.90;;
68315;SDS011;55508;54.368;18.406;2022-09-30T10:52:02;2.40;;;2.20;;
68315;SDS011;55508;54.368;18.406;2022-09-30T10:57:41;3.53;;;3.30;;
68315;SDS011;55508;54.368;18.406;2022-09-30T11:00:15;4.30;;;4.00;;
68315;SDS011;55508;54.368;18.406;2022-09-30T11:02:53;2.30;;;2.20;;
68315;SDS011;55508;54.368;18.406;2022-09-30T11:05:38;1.92;;;1.83;;
68315;SDS011;55508;54.368;18.406;2022-09-30T11:08:12;1.65;;;1.55;;
68315;SDS011;55508;54.368;18.406;2022-09-30T11:11:00;1.50;;;1.40;;
68315;SDS011;55508;54.368;18.406;2022-09-30T11:23:57;2.35;;;2.15;;
68315;SDS011;55508;54.368;18.406;2022-09-30T11:29:35;4.20;;;2.63;;
68315;SDS011;55508;54.368;18.406;2022-09-30T11:32:07;1.80;;;1.70;;
68315;SDS011;55508;54.368;18.406;2022-09-30T11:37:37;2.35;;;1.20;;
68315;SDS011;55508;54.368;18.406;2022-09-30T11:48:51;5.88;;;3.25;;
68315;SDS011;55508;54.368;18.406;2022-09-30T12:02:50;7.38;;;3.85;;
68315;SDS011;55508;54.368;18.406;2022-09-30T12:05:21;5.65;;;3.70;;
68315;SDS011;55508;54.368;18.406;2022-09-30T12:08:05;7.10;;;3.50;;
68315;SDS011;55508;54.368;18.406;2022-09-30T12:13:42;5.13;;;3.47;;
68315;SDS011;55508;54.368;18.406;2022-09-30T12:16:14;6.00;;;3.72;;
68315;SDS011;55508;54.368;18.406;2022-09-30T12:18:43;3.38;;;2.25;;
68315;SDS011;55508;54.368;18.406;2022-09-30T12:21:55;3.22;;;2.40;;
68315;SDS011;55508;54.368;18.406;2022-09-30T12:24:28;3.10;;;2.50;;
68315;SDS011;55508;54.368;18.406;2022-09-30T12:27:20;2.60;;;2.40;;
68315;SDS011;55508;54.368;18.406;2022-09-30T12:30:40;3.20;;;2.88;;
68315;SDS011;55508;54.368;18.406;2022-09-30T12:35:57;3.92;;;3.50;;
68315;SDS011;55508;54.368;18.406;2022-09-30T12:47:33;3.42;;;1.90;;
68315;SDS011;55508;54.368;18.406;2022-09-30T12:50:02;2.08;;;1.98;;
68315;SDS011;55508;54.368;18.406;2022-09-30T12:55:23;4.50;;;3.20;;
68315;SDS011;55508;54.368;18.406;2022-09-30T12:58:12;4.50;;;4.10;;
68315;SDS011;55508;54.368;18.406;2022-09-30T13:11:45;2.63;;;2.42;;
68315;SDS011;55508;54.368;18.406;2022-09-30T13:14:37;3.03;;;2.83;;
68315;SDS011;55508;54.368;18.406;2022-09-30T13:19:45;3.10;;;2.90;;
68315;SDS011;55508;54.368;18.406;2022-09-30T13:27:32;2.90;;;2.70;;
68315;SDS011;55508;54.368;18.406;2022-09-30T13:30:47;3.88;;;2.95;;
68315;SDS011;55508;54.368;18.406;2022-09-30T13:35:32;3.45;;;3.03;;
68315;SDS011;55508;54.368;18.406;2022-09-30T13:38:16;3.55;;;3.35;;
68315;SDS011;55508;54.368;18.406;2022-09-30T13:46:39;3.50;;;3.20;;
68315;SDS011;55508;54.368;18.406;2022-09-30T13:51:52;4.45;;;4.05;;
68315;SDS011;55508;54.368;18.406;2022-09-30T13:54:24;3.92;;;3.63;;
68315;SDS011;55508;54.368;18.406;2022-09-30T13:56:53;3.70;;;3.40;;
68315;SDS011;55508;54.368;18.406;2022-09-30T14:02:18;3.35;;;3.15;;
68315;SDS011;55508;54.368;18.406;2022-09-30T14:07:59;2.50;;;2.40;;
68315;SDS011;55508;54.368;18.406;2022-09-30T14:21:50;2.28;;;2.17;;
68315;SDS011;55508;54.368;18.406;2022-09-30T14:24:22;2.22;;;2.13;;
68315;SDS011;55508;54.368;18.406;2022-09-30T14:29:56;2.20;;;2.10;;
68315;SDS011;55508;54.368;18.406;2022-09-30T14:32:30;1.77;;;1.67;;
68315;SDS011;55508;54.368;18.406;2022-09-30T14:38:25;2.30;;;2.10;;
68315;SDS011;55508;54.368;18.406;2022-09-30T14:40:55;2.70;;;2.50;;
68315;SDS011;55508;54.368;18.406;2022-09-30T14:43:29;2.55;;;2.10;;
68315;SDS011;55508;54.368;18.406;2022-09-30T14:49:04;2.40;;;1.55;;
68315;SDS011;55508;54.368;18.406;2022-09-30T14:51:44;2.10;;;2.00;;
68315;SDS011;55508;54.368;18.406;2022-09-30T14:54:18;2.42;;;2.22;;
68315;SDS011;55508;54.368;18.406;2022-09-30T14:56:49;3.60;;;3.15;;
68315;SDS011;55508;54.368;18.406;2022-09-30T14:59:24;2.85;;;2.65;;
68315;SDS011;55508;54.368;18.406;2022-09-30T15:01:57;4.22;;;2.70;;
68315;SDS011;55508;54.368;18.406;2022-09-30T15:04:29;5.38;;;3.40;;
68315;SDS011;55508;54.368;18.406;2022-09-30T15:06:59;5.57;;;4.30;;
68315;SDS011;55508;54.368;18.406;2022-09-30T15:09:30;6.18;;;4.68;;
68315;SDS011;55508;54.368;18.406;2022-09-30T15:12:03;5.65;;;4.05;;
68315;SDS011;55508;54.368;18.406;2022-09-30T15:14:32;5.30;;;4.72;;
68315;SDS011;55508;54.368;18.406;2022-09-30T15:16:59;3.53;;;3.22;;
68315;SDS011;55508;54.368;18.406;2022-09-30T15:19:32;12.25;;;4.70;;
68315;SDS011;55508;54.368;18.406;2022-09-30T15:22:04;12.63;;;8.35;;
68315;SDS011;55508;54.368;18.406;2022-09-30T15:24:32;18.98;;;9.55;;
68315;SDS011;55508;54.368;18.406;2022-09-30T15:27:00;29.10;;;14.18;;
68315;SDS011;55508;54.368;18.406;2022-09-30T15:29:28;45.85;;;18.85;;
68315;SDS011;55508;54.368;18.406;2022-09-30T15:32:01;54.20;;;22.42;;
68315;SDS011;55508;54.368;18.406;2022-09-30T15:34:31;4.35;;;3.92;;
68315;SDS011;55508;54.368;18.406;2022-09-30T15:37:02;4.90;;;4.40;;
68315;SDS011;55508;54.368;18.406;2022-09-30T15:39:33;3.05;;;2.75;;
68315;SDS011;55508;54.368;18.406;2022-09-30T15:48:06;5.25;;;4.75;;
68315;SDS011;55508;54.368;18.406;2022-09-30T15:50:58;4.05;;;3.65;;
68315;SDS011;55508;54.368;18.406;2022-09-30T15:53:31;3.80;;;2.80;;
68315;SDS011;55508;54.368;18.406;2022-09-30T15:56:15;3.00;;;2.80;;
68315;SDS011;55508;54.368;18.406;2022-09-30T15:59:05;4.05;;;2.97;;
68315;SDS011;55508;54.368;18.406;2022-09-30T16:01:41;3.00;;;2.80;;
68315;SDS011;55508;54.368;18.406;2022-09-30T16:04:11;3.90;;;3.20;;
68315;SDS011;55508;54.368;18.406;2022-09-30T16:06:59;5.25;;;4.65;;
68315;SDS011;55508;54.368;18.406;2022-09-30T16:09:33;6.40;;;4.95;;
68315;SDS011;55508;54.368;18.406;2022-09-30T16:17:37;5.93;;;3.63;;
68315;SDS011;55508;54.368;18.406;2022-09-30T16:20:26;3.88;;;3.53;;
68315;SDS011;55508;54.368;18.406;2022-09-30T16:22:53;6.18;;;3.60;;
68315;SDS011;55508;54.368;18.406;2022-09-30T16:25:21;4.25;;;3.85;;
68315;SDS011;55508;54.368;18.406;2022-09-30T16:30:40;6.57;;;5.00;;
68315;SDS011;55508;54.368;18.406;2022-09-30T16:33:08;6.93;;;6.32;;
68315;SDS011;55508;54.368;18.406;2022-09-30T16:35:36;6.90;;;6.20;;
68315;SDS011;55508;54.368;18.406;2022-09-30T16:38:04;7.70;;;6.32;;
68315;SDS011;55508;54.368;18.406;2022-09-30T16:40:32;9.73;;;6.60;;
68315;SDS011;55508;54.368;18.406;2022-09-30T16:43:01;8.80;;;6.78;;
68315;SDS011;55508;54.368;18.406;2022-09-30T16:45:33;8.40;;;7.30;;
68315;SDS011;55508;54.368;18.406;2022-09-30T16:48:01;8.95;;;7.53;;
68315;SDS011;55508;54.368;18.406;2022-09-30T16:50:53;12.30;;;7.63;;
68315;SDS011;55508;54.368;18.406;2022-09-30T16:53:20;10.43;;;6.55;;
68315;SDS011;55508;54.368;18.406;2022-09-30T16:55:48;8.30;;;7.03;;
68315;SDS011;55508;54.368;18.406;2022-09-30T16:58:15;9.32;;;6.32;;
68315;SDS011;55508;54.368;18.406;2022-09-30T17:00:43;8.73;;;6.75;;
68315;SDS011;55508;54.368;18.406;2022-09-30T17:03:11;7.13;;;6.10;;
68315;SDS011;55508;54.368;18.406;2022-09-30T17:05:42;12.30;;;6.15;;
68315;SDS011;55508;54.368;18.406;2022-09-30T17:08:10;6.90;;;6.32;;
68315;SDS011;55508;54.368;18.406;2022-09-30T17:10:41;9.55;;;6.70;;
68315;SDS011;55508;54.368;18.406;2022-09-30T17:13:09;8.60;;;7.72;;
68315;SDS011;55508;54.368;18.406;2022-09-30T17:15:37;12.02;;;10.70;;
68315;SDS011;55508;54.368;18.406;2022-09-30T17:18:05;13.75;;;9.60;;
68315;SDS011;55508;54.368;18.406;2022-09-30T17:20:32;11.80;;;7.88;;
68315;SDS011;55508;54.368;18.406;2022-09-30T17:23:00;16.65;;;8.93;;
68315;SDS011;55508;54.368;18.406;2022-09-30T17:25:33;17.10;;;10.60;;
68315;SDS011;55508;54.368;18.406;2022-09-30T17:28:00;13.50;;;9.82;;
68315;SDS011;55508;54.368;18.406;2022-09-30T17:30:27;16.20;;;10.77;;
68315;SDS011;55508;54.368;18.406;2022-09-30T17:32:54;15.15;;;11.20;;
68315;SDS011;55508;54.368;18.406;2022-09-30T17:35:22;21.23;;;12.30;;
68315;SDS011;55508;54.368;18.406;2022-09-30T17:37:49;15.52;;;12.15;;
68315;SDS011;55508;54.368;18.406;2022-09-30T17:40:17;17.38;;;11.90;;
68315;SDS011;55508;54.368;18.406;2022-09-30T17:43:03;14.00;;;11.48;;
68315;SDS011;55508;54.368;18.406;2022-09-30T17:45:44;13.75;;;11.00;;
68315;SDS011;55508;54.368;18.406;2022-09-30T17:48:13;13.38;;;10.80;;
68315;SDS011;55508;54.368;18.406;2022-09-30T17:50:44;18.55;;;12.98;;
68315;SDS011;55508;54.368;18.406;2022-09-30T17:53:14;26.05;;;12.85;;
68315;SDS011;55508;54.368;18.406;2022-09-30T17:55:45;17.25;;;13.63;;
68315;SDS011;55508;54.368;18.406;2022-09-30T17:58:15;32.10;;;24.77;;
68315;SDS011;55508;54.368;18.406;2022-09-30T18:00:43;27.50;;;20.42;;
68315;SDS011;55508;54.368;18.406;2022-09-30T18:03:14;27.27;;;17.15;;
68315;SDS011;55508;54.368;18.406;2022-09-30T18:05:44;26.98;;;17.40;;
68315;SDS011;55508;54.368;18.406;2022-09-30T18:08:16;27.30;;;16.75;;
68315;SDS011;55508;54.368;18.406;2022-09-30T18:10:45;22.00;;;15.13;;
68315;SDS011;55508;54.368;18.406;2022-09-30T18:13:13;14.63;;;13.00;;
68315;SDS011;55508;54.368;18.406;2022-09-30T18:15:44;23.55;;;13.40;;
68315;SDS011;55508;54.368;18.406;2022-09-30T18:18:13;16.80;;;13.35;;
68315;SDS011;55508;54.368;18.406;2022-09-30T18:20:42;15.50;;;13.85;;
68315;SDS011;55508;54.368;18.406;2022-09-30T18:23:16;21.08;;;14.38;;
68315;SDS011;55508;54.368;18.406;2022-09-30T18:25:50;20.52;;;15.70;;
68315;SDS011;55508;54.368;18.406;2022-09-30T18:28:29;19.95;;;16.08;;
68315;SDS011;55508;54.368;18.406;2022-09-30T18:31:02;34.25;;;22.15;;
68315;SDS011;55508;54.368;18.406;2022-09-30T18:33:33;32.35;;;21.38;;
68315;SDS011;55508;54.368;18.406;2022-09-30T18:36:02;36.72;;;25.05;;
68315;SDS011;55508;54.368;18.406;2022-09-30T18:38:35;31.55;;;22.90;;